• Join FlightAware (Why Join?)
  • Login
  • US Flag 
03:13PM EDT


 

Airport Tracker/Info


-or-


 

Live Flight TrackerFlight Track Log ✈ N775NC ✈ 17-Oct-2013 ✈ KATL - KAVL

Flight Track Log - Related Links

Times and Time Zones

All times are in EDT time to prevent confusion due to time zone crossing. See the N775NC flight status page for this flight to view local times or setup timezone preferences in your user account.

Time Position Orientation Groundspeed Altitude Reporting Facility
EDT Latitude Longitude Course Direction KTS MPH feet Rate Location/Type
07:55PM 33.6500 -84.4500 29° Northeast 155 178 2,200  Level Atlanta TRACON
07:55PM 33.6667 -84.5167 287° West 225 259 3,700 2,220 Climbing Atlanta TRACON
07:56PM 33.6833 -84.5833 287° West 272 313 6,500 2,220 Climbing Atlanta TRACON
07:58PM 33.8472 -84.6092 353° North 299 344 10,400 2,100 Climbing Atlanta Center
07:59PM 34.0476 -84.0069 24° Northeast  Level Estimated
07:59PM 33.9433 -84.6047 North 326 375 12,900  Level Atlanta Center
08:00PM 34.1297 -83.9222 29° Northeast  Level Estimated
08:00PM 34.0542 -84.5553 20° North 359 413 14,000  Level Atlanta Center
08:01PM 34.1628 -84.4933 25° Northeast 397 457 15,800 1,920 Climbing Atlanta Center
08:02PM 34.2633 -84.4158 32° Northeast 424 488 17,900 1,560 Climbing Atlanta Center
08:03PM 34.3678 -84.3308 34° Northeast 446 513 19,000 540 Climbing Atlanta Center
08:04PM 34.4767 -84.2453 33° Northeast 462 532 19,000  Level Atlanta Center
08:05PM 34.5894 -84.1700 29° Northeast 462 532 19,000  Level Atlanta Center
08:06PM 34.7022 -84.1144 22° Northeast 449 517 19,100  Climbing Atlanta Center
08:07PM 34.8147 -84.0414 28° Northeast 444 511 19,000 -60 Descending Atlanta Center
08:08PM 34.9150 -83.9475 38° Northeast 444 511 19,000  Level Atlanta Center
08:09PM 35.0150 -83.8536 38° Northeast 449 517 19,100  Climbing Atlanta Center
08:10PM 35.0689 -83.7089 66° East 438 504 19,000 -60 Descending Atlanta Center
08:11PM 35.1186 -83.5639 67° East 444 511 19,000 -60 Level Atlanta Center
08:12PM 35.1639 -83.4139 70° East 457 526 18,900 -900 Descending Atlanta Center
08:13PM 35.1964 -83.2636 75° East 457 526 17,200 -1,800 Descending Atlanta Center
08:14PM 35.2286 -83.1261 74° East 467 537 15,300 -1,800 Descending Atlanta Center
08:15PM 35.2608 -82.9756 75° East 457 526 13,600 -1,680 Descending Atlanta Center
08:16PM 35.2992 -82.8375 71° East 418 481 12,000 -1,620 Descending Atlanta Center
08:17PM 35.3292 -82.7075 74° East 397 457 10,400 -1,200 Descending Atlanta Center
08:18PM 35.3572 -82.6025 72° East 362 417 9,600 -1,380 Descending Atlanta Center
08:19PM 35.3250 -82.5217 116° Southeast 292 336 7,700 -1,500 Descending Atlanta Center
08:20PM 35.2436 -82.5206 179° South 248 285 6,700 -1,080 Descending Atlanta Center
08:21PM 35.1686 -82.5219 181° South 255 293 5,600 -900 Descending Atlanta Center
08:22PM 35.1636 -82.4533 95° East 156 180 5,000 -600 Descending Atlanta Center
08:24PM 35.2607 -82.4848 345° North  Level Estimated
08:31PM 35.4362 -82.5418 345° North  Level Estimated
08:32PM 35.4362 -82.5418 39° Northeast  Level Estimated
08:33PM 35.4362 -82.5418 39° Northeast  Level Estimated